createdAt,value
2022-10-12T00:00:52.088Z,99205.63
2022-10-12T00:03:35.033Z,99209.03
2022-10-12T00:06:05.512Z,99208.75
2022-10-12T00:08:34.310Z,99208.31
2022-10-12T00:11:02.623Z,99206.22
2022-10-12T00:13:32.505Z,99212.22
2022-10-12T00:16:03.747Z,99210.91
2022-10-12T00:18:31.986Z,99207.72
2022-10-12T00:21:04.185Z,99209.00
2022-10-12T00:23:32.985Z,99203.97
2022-10-12T00:26:05.311Z,99206.13
2022-10-12T00:28:35.401Z,99217.91
2022-10-12T00:31:03.851Z,99209.38
2022-10-12T00:33:32.132Z,99212.06
2022-10-12T00:36:00.360Z,99206.59
2022-10-12T00:38:28.479Z,99204.63
2022-10-12T00:40:56.866Z,99217.72
2022-10-12T00:43:27.431Z,99215.63
2022-10-12T00:45:57.239Z,99209.38
2022-10-12T00:48:25.997Z,99209.19
2022-10-12T00:50:54.613Z,99207.16
2022-10-12T00:53:25.033Z,99217.28
2022-10-12T00:55:59.341Z,99214.91
2022-10-12T00:58:28.934Z,99210.84
2022-10-12T01:00:58.699Z,99212.66
2022-10-12T01:03:27.380Z,99207.63
2022-10-12T01:05:55.633Z,99217.09
2022-10-12T01:08:24.105Z,99207.09
2022-10-12T01:10:52.456Z,99206.53
2022-10-12T01:13:20.863Z,99206.41
2022-10-12T01:15:55.649Z,99200.88
2022-10-12T01:18:28.987Z,99201.56
2022-10-12T01:21:08.008Z,99206.28
2022-10-12T01:23:50.034Z,99204.63
2022-10-12T01:26:41.702Z,99202.47
2022-10-12T01:29:24.241Z,99206.94
2022-10-12T01:31:59.887Z,99204.13
2022-10-12T01:34:30.953Z,99205.91
2022-10-12T01:37:03.478Z,99212.75
2022-10-12T01:39:36.111Z,99206.97
2022-10-12T01:42:08.156Z,99213.13
2022-10-12T01:44:40.532Z,99213.22
2022-10-12T01:47:12.169Z,99210.78
2022-10-12T01:49:40.622Z,99211.09
2022-10-12T01:52:28.932Z,99212.44
2022-10-12T01:55:07.541Z,99212.16
2022-10-12T01:57:43.506Z,99210.47
2022-10-12T02:00:13.652Z,99208.13
2022-10-12T02:02:51.828Z,99208.09
2022-10-12T02:05:26.312Z,99210.88
2022-10-12T02:07:57.264Z,99213.28
2022-10-12T02:10:29.042Z,99210.41
2022-10-12T02:12:59.236Z,99206.28
2022-10-12T02:15:28.441Z,99205.91
2022-10-12T02:17:59.051Z,99203.22
2022-10-12T02:20:28.176Z,99209.91
2022-10-12T02:22:56.853Z,99209.78
2022-10-12T02:25:27.104Z,99210.59
2022-10-12T02:27:58.696Z,99209.41
2022-10-12T02:30:27.151Z,99197.50
2022-10-12T02:33:00.836Z,99208.84
2022-10-12T02:35:34.099Z,99209.91
2022-10-12T02:38:04.823Z,99218.34
2022-10-12T02:40:36.005Z,99216.69
2022-10-12T02:43:10.372Z,99212.38
2022-10-12T02:45:39.936Z,99223.06
2022-10-12T02:48:10.752Z,99219.44
2022-10-12T02:50:38.995Z,99218.31
2022-10-12T02:53:07.399Z,99215.88
2022-10-12T02:55:39.594Z,99220.94
2022-10-12T02:58:07.705Z,99227.09
2022-10-12T03:00:35.948Z,99212.16
2022-10-12T03:03:04.320Z,99222.56
2022-10-12T03:05:33.908Z,99220.84
2022-10-12T03:08:01.977Z,99216.84
2022-10-12T03:10:30.285Z,99206.13
2022-10-12T03:12:58.356Z,99215.38
2022-10-12T03:15:26.546Z,99207.09
2022-10-12T03:17:54.819Z,99203.97
2022-10-12T03:20:23.112Z,99199.09
2022-10-12T03:22:53.448Z,99205.03
2022-10-12T03:25:21.816Z,99206.78
2022-10-12T03:27:50.040Z,99206.28
2022-10-12T03:30:18.244Z,99208.00
2022-10-12T03:32:46.601Z,99207.00
2022-10-12T03:35:14.716Z,99208.88
2022-10-12T03:37:42.921Z,99204.09
2022-10-12T03:40:13.982Z,99217.53
2022-10-12T03:42:42.128Z,99213.19
2022-10-12T03:45:11.119Z,99211.38
2022-10-12T03:47:39.935Z,99221.34
2022-10-12T03:50:09.121Z,99211.44
2022-10-12T03:52:37.326Z,99214.88
2022-10-12T03:55:06.203Z,99219.97
2022-10-12T03:57:36.007Z,99222.50
2022-10-12T04:00:05.762Z,99216.19
2022-10-12T04:02:34.021Z,99218.78
2022-10-12T04:05:02.239Z,99221.59
2022-10-12T04:07:30.536Z,99227.50
2022-10-12T04:09:58.793Z,99219.84
2022-10-12T04:12:27.113Z,99218.38
2022-10-12T04:14:56.812Z,99220.66
2022-10-12T04:17:24.929Z,99217.22
2022-10-12T04:19:53.234Z,99220.53
2022-10-12T04:22:21.299Z,99214.50
2022-10-12T04:24:49.418Z,99225.16
2022-10-12T04:27:17.671Z,99221.00
2022-10-12T04:29:45.746Z,99221.97
2022-10-12T04:32:15.260Z,99222.22
2022-10-12T04:34:43.582Z,99221.59
2022-10-12T04:37:11.687Z,99218.50
2022-10-12T04:39:40.090Z,99224.78
2022-10-12T04:42:08.302Z,99224.56
2022-10-12T04:44:36.707Z,99221.59
2022-10-12T04:47:04.967Z,99222.06
2022-10-12T04:49:34.805Z,99227.31
2022-10-12T04:52:02.918Z,99222.16
2022-10-12T04:54:32.925Z,99228.81
2022-10-12T04:57:01.839Z,99233.81
2022-10-12T04:59:30.346Z,99232.59
2022-10-12T05:01:58.529Z,99232.72
2022-10-12T05:04:26.736Z,99232.25
2022-10-12T05:06:56.392Z,99228.78
2022-10-12T05:09:24.521Z,99232.69
2022-10-12T05:11:52.718Z,99232.63
2022-10-12T05:14:20.890Z,99236.38
2022-10-12T05:16:49.364Z,99239.13
2022-10-12T05:19:17.499Z,99234.22
2022-10-12T05:21:45.722Z,99235.94
2022-10-12T05:24:15.508Z,99243.59
2022-10-12T05:26:43.839Z,99244.47
2022-10-12T05:29:12.038Z,99245.72
2022-10-12T05:31:40.354Z,99249.69
2022-10-12T05:34:08.685Z,99248.69
2022-10-12T05:36:37.306Z,99252.13
2022-10-12T05:39:05.482Z,99245.44
2022-10-12T05:41:35.252Z,99249.00
2022-10-12T05:44:03.527Z,99242.94
2022-10-12T05:46:31.808Z,99250.28
2022-10-12T05:48:59.926Z,99258.06
2022-10-12T05:51:29.148Z,99254.34
2022-10-12T05:53:57.374Z,99251.00
2022-10-12T05:56:25.740Z,99255.25
2022-10-12T05:58:55.406Z,99253.19
2022-10-12T06:01:23.885Z,99256.84
2022-10-12T06:03:53.441Z,99251.75
2022-10-12T06:06:22.026Z,99261.66
2022-10-12T06:08:50.141Z,99260.72
2022-10-12T06:11:18.492Z,99262.06
2022-10-12T06:13:46.612Z,99259.16
2022-10-12T06:16:16.403Z,99263.38
2022-10-12T06:18:44.484Z,99257.63
2022-10-12T06:24:01.224Z,99249.00
2022-10-12T06:26:29.646Z,99255.50
2022-10-12T06:28:58.011Z,99254.94
2022-10-12T06:31:28.233Z,99260.69
2022-10-12T06:33:56.352Z,99260.16
2022-10-12T06:36:24.652Z,99258.84
2022-10-12T06:38:53.417Z,99251.00
2022-10-12T06:41:21.771Z,99259.66
2022-10-12T06:43:49.980Z,99247.59
2022-10-12T06:46:18.637Z,99263.09
2022-10-12T06:48:48.092Z,99260.59
2022-10-12T06:51:16.514Z,99267.88
2022-10-12T06:53:44.552Z,99260.75
2022-10-12T06:56:13.852Z,99256.59
2022-10-12T06:58:42.193Z,99260.31
2022-10-12T07:01:11.165Z,99253.88
2022-10-12T07:03:39.479Z,99256.41
2022-10-12T07:06:11.857Z,99260.38
2022-10-12T07:08:41.179Z,99263.75
2022-10-12T07:11:11.930Z,99261.31
2022-10-12T07:13:40.365Z,99266.72
2022-10-12T07:16:09.337Z,99263.19
2022-10-12T07:18:37.525Z,99259.66
2022-10-12T07:21:06.091Z,99260.91
2022-10-12T07:23:41.359Z,99267.97
2022-10-12T07:26:13.377Z,99263.28
2022-10-12T07:28:41.802Z,99268.03
2022-10-12T07:31:10.777Z,99259.63
2022-10-12T07:33:39.733Z,99264.09
2022-10-12T07:36:21.384Z,99263.47
2022-10-12T07:38:51.728Z,99256.59
2022-10-12T07:41:20.131Z,99258.13
2022-10-12T07:43:48.333Z,99257.09
2022-10-12T07:46:16.613Z,99252.66
2022-10-12T07:48:49.966Z,99249.50
2022-10-12T07:51:18.993Z,99252.03
2022-10-12T07:53:47.337Z,99251.75
2022-10-12T07:56:17.097Z,99253.47
2022-10-12T07:58:49.936Z,99250.47
2022-10-12T08:01:19.268Z,99250.13
2022-10-12T08:03:47.663Z,99257.88
2022-10-12T08:06:17.425Z,99246.31
2022-10-12T08:08:46.209Z,99244.03
2022-10-12T08:11:16.068Z,99250.97
2022-10-12T08:13:44.752Z,99247.09
2022-10-12T08:16:15.531Z,99244.19
2022-10-12T08:18:44.445Z,99243.91
2022-10-12T08:21:16.559Z,99246.25
2022-10-12T08:23:45.641Z,99245.19
2022-10-12T08:26:16.899Z,99243.72
2022-10-12T08:28:45.525Z,99240.69
2022-10-12T08:31:16.583Z,99243.47
2022-10-12T08:33:45.175Z,99244.34
2022-10-12T08:36:14.378Z,99242.56
2022-10-12T08:38:43.632Z,99239.72
2022-10-12T08:41:22.639Z,99239.81
2022-10-12T08:44:01.449Z,99239.97
2022-10-12T08:46:30.453Z,99240.88
2022-10-12T08:49:00.877Z,99245.13
2022-10-12T08:51:31.712Z,99241.50
2022-10-12T08:54:03.843Z,99237.91
2022-10-12T08:56:35.014Z,99235.97
2022-10-12T08:59:03.933Z,99240.84
2022-10-12T09:01:37.477Z,99234.75
2022-10-12T09:04:13.448Z,99242.38
2022-10-12T09:06:46.648Z,99235.09
2022-10-12T09:09:34.667Z,99231.66
2022-10-12T09:12:11.134Z,99231.09
2022-10-12T09:14:40.514Z,99225.97
2022-10-12T09:17:23.496Z,99219.13
2022-10-12T09:19:59.792Z,99223.13
2022-10-12T09:22:29.181Z,99210.00
2022-10-12T09:24:58.750Z,99217.06
2022-10-12T09:27:31.304Z,99216.47
2022-10-12T09:30:03.202Z,99215.03
2022-10-12T09:32:42.013Z,99205.97
2022-10-12T09:35:13.409Z,99208.63
2022-10-12T09:37:42.040Z,99213.25
2022-10-12T09:40:18.575Z,99219.19
2022-10-12T09:42:48.884Z,99220.69
2022-10-12T09:45:19.849Z,99216.09
2022-10-12T09:48:16.457Z,99213.69
2022-10-12T09:50:47.156Z,99214.13
2022-10-12T09:53:32.427Z,99217.13
2022-10-12T09:56:04.085Z,99206.53
2022-10-12T09:58:39.073Z,99213.66
2022-10-12T10:01:28.316Z,99217.47
2022-10-12T10:04:12.596Z,99207.50
2022-10-12T10:06:42.100Z,99208.47
2022-10-12T10:09:28.423Z,99199.91
2022-10-12T10:11:56.877Z,99198.56
2022-10-12T10:14:26.669Z,99196.41
2022-10-12T10:16:55.774Z,99194.44
2022-10-12T10:19:26.613Z,99196.91
2022-10-12T10:21:55.970Z,99199.91
2022-10-12T10:24:29.568Z,99200.66
2022-10-12T10:26:59.983Z,99203.03
2022-10-12T10:29:36.229Z,99195.69
2022-10-12T10:32:24.183Z,99198.00
2022-10-12T10:35:03.215Z,99197.06
2022-10-12T10:37:32.044Z,99187.00
2022-10-12T10:40:00.970Z,99194.47
2022-10-12T10:42:31.696Z,99195.25
2022-10-12T10:45:02.935Z,99193.66
2022-10-12T10:47:33.190Z,99187.56
2022-10-12T10:50:03.091Z,99190.06
2022-10-12T10:52:32.648Z,99187.47
2022-10-12T10:55:17.235Z,99189.66
2022-10-12T10:57:49.591Z,99179.81
2022-10-12T11:03:14.613Z,99176.56
2022-10-12T11:05:46.182Z,99177.31
2022-10-12T11:08:17.247Z,99179.47
2022-10-12T11:10:49.766Z,99175.13
2022-10-12T11:13:20.508Z,99167.00
2022-10-12T11:15:51.732Z,99165.88
2022-10-12T11:18:24.807Z,99168.72
2022-10-12T11:20:56.462Z,99162.78
2022-10-12T11:23:42.012Z,99164.44
2022-10-12T11:26:14.877Z,99158.22
2022-10-12T11:28:43.329Z,99156.25
2022-10-12T11:31:20.171Z,99155.25
2022-10-12T11:33:49.496Z,99148.22
2022-10-12T11:36:20.608Z,99153.13
2022-10-12T11:38:52.105Z,99140.94
2022-10-12T11:41:37.767Z,99138.19
2022-10-12T11:44:11.006Z,99136.72
2022-10-12T11:46:46.050Z,99139.81
2022-10-12T11:49:17.638Z,99135.69
2022-10-12T11:51:48.067Z,99137.13
2022-10-12T11:54:21.160Z,99135.09
2022-10-12T11:56:51.596Z,99142.81
2022-10-12T11:59:25.936Z,99142.41
2022-10-12T12:02:02.671Z,99134.97
2022-10-12T12:04:47.819Z,99143.44
2022-10-12T12:07:56.797Z,99141.53
2022-10-12T12:10:54.309Z,99143.22
2022-10-12T12:13:27.087Z,99130.63
2022-10-12T12:16:34.390Z,99141.63
2022-10-12T12:19:42.630Z,99137.47
2022-10-12T12:22:23.724Z,99137.66
2022-10-12T12:24:58.214Z,99129.31
2022-10-12T12:27:33.341Z,99133.56
2022-10-12T12:30:03.139Z,99128.66
2022-10-12T12:32:43.875Z,99124.44
2022-10-12T12:35:23.289Z,99121.47
2022-10-12T12:38:17.312Z,99132.75
2022-10-12T12:41:00.509Z,99123.38
2022-10-12T12:43:59.632Z,99123.19
2022-10-12T12:50:02.571Z,99120.34
2022-10-12T12:52:34.987Z,99124.75
2022-10-12T12:55:20.479Z,99115.88
2022-10-12T12:58:06.014Z,99118.38
2022-10-12T13:00:39.067Z,99112.69
2022-10-12T13:03:24.958Z,99120.66
2022-10-12T13:06:30.060Z,99113.72
2022-10-12T13:09:20.597Z,99109.03
2022-10-12T13:12:09.701Z,99111.59
2022-10-12T13:14:50.670Z,99099.53
2022-10-12T13:17:38.206Z,99099.88
2022-10-12T13:20:17.354Z,99105.91
2022-10-12T13:22:46.811Z,99110.44
2022-10-12T13:25:21.870Z,99111.56
2022-10-12T13:27:52.294Z,99102.69
2022-10-12T13:30:26.141Z,99105.94
2022-10-12T13:32:58.082Z,99099.25
2022-10-12T13:35:32.399Z,99098.53
2022-10-12T13:38:02.485Z,99106.72
2022-10-12T13:40:34.925Z,99096.94
2022-10-12T13:43:35.489Z,99090.94
2022-10-12T13:46:04.609Z,99097.47
2022-10-12T13:48:58.788Z,99087.97
2022-10-12T13:51:26.589Z,99087.06
2022-10-12T13:53:55.180Z,99089.63
2022-10-12T13:56:26.837Z,99094.56
2022-10-12T13:58:59.058Z,99099.03
2022-10-12T14:01:27.550Z,99094.53
2022-10-12T14:04:03.654Z,99098.25
2022-10-12T14:06:34.803Z,99094.13
2022-10-12T14:09:08.998Z,99094.00
2022-10-12T14:11:38.849Z,99090.97
2022-10-12T14:14:07.740Z,99086.81
2022-10-12T14:16:35.899Z,99086.88
2022-10-12T14:19:19.887Z,99086.78
2022-10-12T14:21:49.148Z,99085.19
2022-10-12T14:24:19.911Z,99085.78
2022-10-12T14:26:56.025Z,99089.47
2022-10-12T14:29:32.237Z,99087.22
2022-10-12T14:32:02.092Z,99080.88
2022-10-12T14:34:40.473Z,99085.03
2022-10-12T14:37:29.936Z,99075.88
2022-10-12T14:40:02.625Z,99076.25
2022-10-12T14:42:34.433Z,99070.25
2022-10-12T14:45:04.893Z,99070.66
2022-10-12T14:47:34.845Z,99067.31
2022-10-12T14:50:08.253Z,99069.69
2022-10-12T14:52:39.675Z,99067.41
2022-10-12T14:55:11.364Z,99064.66
2022-10-12T14:57:41.277Z,99068.47
2022-10-12T15:00:10.254Z,99068.06
2022-10-12T15:02:40.265Z,99065.59
2022-10-12T15:05:10.484Z,99064.56
2022-10-12T15:07:38.811Z,99068.25
2022-10-12T15:10:08.061Z,99072.03
2022-10-12T15:12:36.649Z,99061.91
2022-10-12T15:15:24.279Z,99074.00
2022-10-12T15:17:56.284Z,99072.00
2022-10-12T15:20:24.601Z,99067.31
2022-10-12T15:22:52.863Z,99068.19
2022-10-12T15:25:24.435Z,99074.34
2022-10-12T15:27:52.849Z,99077.09
2022-10-12T15:30:22.736Z,99071.81
2022-10-12T15:32:51.489Z,99075.44
2022-10-12T15:35:24.639Z,99077.91
2022-10-12T15:37:56.286Z,99080.09
2022-10-12T15:40:25.657Z,99073.84
2022-10-12T15:42:53.834Z,99074.13
2022-10-12T15:45:25.120Z,99074.84
2022-10-12T15:47:54.281Z,99077.28
2022-10-12T15:50:24.833Z,99077.91
2022-10-12T15:52:54.309Z,99079.75
2022-10-12T15:55:25.016Z,99085.06
2022-10-12T15:57:53.515Z,99071.50
2022-10-12T16:00:26.048Z,99080.97
2022-10-12T16:02:54.648Z,99087.13
2022-10-12T16:05:24.324Z,99089.84
2022-10-12T16:07:52.979Z,99090.06
2022-10-12T16:10:23.803Z,99096.13
2022-10-12T16:12:53.727Z,99094.78
2022-10-12T16:15:24.862Z,99083.69
2022-10-12T16:17:53.254Z,99096.59
2022-10-12T16:20:21.607Z,99092.25
2022-10-12T16:22:50.254Z,99096.22
2022-10-12T16:25:21.594Z,99089.41
2022-10-12T16:27:49.941Z,99087.47
2022-10-12T16:30:18.452Z,99091.25
2022-10-12T16:32:48.080Z,99093.44
2022-10-12T16:35:16.655Z,99089.03
2022-10-12T16:37:45.022Z,99093.97
2022-10-12T16:40:13.964Z,99092.56
2022-10-12T16:42:42.343Z,99095.50
2022-10-12T16:45:11.389Z,99100.06
2022-10-12T16:47:42.795Z,99092.66
2022-10-12T16:50:13.049Z,99103.69
2022-10-12T16:52:41.540Z,99093.78
2022-10-12T16:55:10.645Z,99099.03
2022-10-12T16:57:39.033Z,99097.88
2022-10-12T17:00:08.468Z,99100.88
2022-10-12T17:02:36.840Z,99086.09
2022-10-12T17:05:05.620Z,99097.28
2022-10-12T17:07:35.488Z,99099.28
2022-10-12T17:10:03.614Z,99102.56
2022-10-12T17:12:31.973Z,99097.16
2022-10-12T17:15:00.139Z,99104.66
2022-10-12T17:17:28.562Z,99100.56
2022-10-12T17:19:56.810Z,99105.19
2022-10-12T17:22:25.374Z,99100.50
2022-10-12T17:24:54.918Z,99100.78
2022-10-12T17:27:23.184Z,99106.72
2022-10-12T17:29:51.277Z,99103.47
2022-10-12T17:32:19.958Z,99103.50
2022-10-12T17:34:48.208Z,99100.19
2022-10-12T17:37:16.982Z,99105.13
2022-10-12T17:39:48.023Z,99108.72
2022-10-12T17:42:18.954Z,99103.53
2022-10-12T17:44:47.522Z,99102.88
2022-10-12T17:47:16.338Z,99102.59
2022-10-12T17:49:44.830Z,99110.53
2022-10-12T17:52:13.432Z,99104.19
2022-10-12T17:54:41.836Z,99106.41
2022-10-12T17:57:10.228Z,99109.50
2022-10-12T17:59:40.244Z,99108.97
2022-10-12T18:02:09.756Z,99106.56
2022-10-12T18:04:38.700Z,99104.66
2022-10-12T18:07:06.926Z,99104.13
2022-10-12T18:09:35.035Z,99099.44
2022-10-12T18:12:03.468Z,99103.28
2022-10-12T18:14:31.592Z,99104.72
2022-10-12T18:17:01.474Z,99101.09
2022-10-12T18:19:30.095Z,99097.59
2022-10-12T18:21:58.246Z,99102.53
2022-10-12T18:24:26.316Z,99102.28
2022-10-12T18:26:54.798Z,99098.97
2022-10-12T18:29:23.009Z,99094.84
2022-10-12T18:31:51.241Z,99101.16
2022-10-12T18:34:20.935Z,99095.38
2022-10-12T18:36:49.127Z,99098.41
2022-10-12T18:39:17.634Z,99096.50
2022-10-12T18:41:45.808Z,99106.41
2022-10-12T18:44:15.129Z,99101.16
2022-10-12T18:46:43.410Z,99101.72
2022-10-12T18:49:12.300Z,99100.59
2022-10-12T18:51:43.612Z,99102.81
2022-10-12T18:54:12.946Z,99102.38
2022-10-12T18:56:41.835Z,99103.09
2022-10-12T18:59:11.658Z,99102.53
2022-10-12T19:01:39.820Z,99102.25
2022-10-12T19:04:08.227Z,99095.41
2022-10-12T19:06:39.031Z,99100.88
2022-10-12T19:09:08.878Z,99104.16
2022-10-12T19:11:37.691Z,99097.88
2022-10-12T19:14:08.250Z,99104.72
2022-10-12T19:16:37.010Z,99109.97
2022-10-12T19:19:11.835Z,99110.22
2022-10-12T19:21:40.558Z,99113.25
2022-10-12T19:24:12.629Z,99114.06
2022-10-12T19:26:41.079Z,99115.97
2022-10-12T19:29:09.714Z,99112.63
2022-10-12T19:31:39.588Z,99106.38
2022-10-12T19:34:10.550Z,99108.78
2022-10-12T19:36:40.222Z,99110.97
2022-10-12T19:39:13.517Z,99110.47
2022-10-12T19:41:41.875Z,99111.91
2022-10-12T19:44:11.863Z,99115.09
2022-10-12T19:46:40.604Z,99110.38
2022-10-12T19:49:08.994Z,99116.94
2022-10-12T19:51:37.115Z,99114.16
2022-10-12T19:54:05.602Z,99114.22
2022-10-12T19:56:35.314Z,99111.28
2022-10-12T19:59:03.778Z,99111.94
2022-10-12T20:01:34.857Z,99112.31
2022-10-12T20:04:06.744Z,99109.84
2022-10-12T20:06:35.296Z,99119.34
2022-10-12T20:09:03.463Z,99108.38
2022-10-12T20:11:32.101Z,99112.50
2022-10-12T20:14:01.853Z,99105.44
2022-10-12T20:16:34.810Z,99116.84
2022-10-12T20:19:04.016Z,99112.72
2022-10-12T20:21:32.330Z,99114.59
2022-10-12T20:24:00.453Z,99116.84
2022-10-12T20:26:29.892Z,99123.19
2022-10-12T20:28:58.267Z,99122.22
2022-10-12T20:31:29.495Z,99120.69
2022-10-12T20:33:58.860Z,99118.97
2022-10-12T20:36:28.855Z,99119.84
2022-10-12T20:38:58.355Z,99116.78
2022-10-12T20:41:27.735Z,99112.06
2022-10-12T20:43:57.363Z,99117.81
2022-10-12T20:46:27.664Z,99115.25
2022-10-12T20:48:58.811Z,99111.28
2022-10-12T20:51:28.218Z,99119.91
2022-10-12T20:53:59.200Z,99107.88
2022-10-12T20:56:27.939Z,99118.53
2022-10-12T20:58:56.521Z,99118.44
2022-10-12T21:01:25.929Z,99114.88
2022-10-12T21:03:56.082Z,99116.06
2022-10-12T21:06:24.592Z,99114.75
2022-10-12T21:08:53.664Z,99114.75
2022-10-12T21:11:22.319Z,99111.19
2022-10-12T21:13:51.103Z,99106.09
2022-10-12T21:16:19.905Z,99108.50
2022-10-12T21:18:48.286Z,99107.91
2022-10-12T21:21:19.897Z,99114.44
2022-10-12T21:23:52.430Z,99110.53
2022-10-12T21:26:23.300Z,99105.28
2022-10-12T21:28:51.691Z,99110.25
2022-10-12T21:31:21.228Z,99109.00
2022-10-12T21:33:49.708Z,99109.09
2022-10-12T21:36:20.424Z,99108.19
2022-10-12T21:38:49.235Z,99107.75
2022-10-12T21:41:18.737Z,99104.84
2022-10-12T21:43:48.446Z,99111.91
2022-10-12T21:46:18.613Z,99099.34
2022-10-12T21:48:47.282Z,99099.66
2022-10-12T21:51:15.766Z,99097.31
2022-10-12T21:53:45.655Z,99096.44
2022-10-12T21:56:16.146Z,99096.06
2022-10-12T21:58:44.821Z,99103.75
2022-10-12T22:01:14.656Z,99096.78
2022-10-12T22:03:43.710Z,99105.16
2022-10-12T22:06:14.078Z,99097.22
2022-10-12T22:08:42.388Z,99102.69
2022-10-12T22:11:13.769Z,99095.34
2022-10-12T22:13:42.028Z,99100.81
2022-10-12T22:16:12.968Z,99099.97
2022-10-12T22:18:41.933Z,99100.59
2022-10-12T22:21:12.706Z,99096.28
2022-10-12T22:23:41.868Z,99094.91
2022-10-12T22:26:13.486Z,99099.69
2022-10-12T22:28:41.898Z,99099.22
2022-10-12T22:31:11.925Z,99092.88
2022-10-12T22:33:40.545Z,99095.72
2022-10-12T22:36:09.571Z,99096.38
2022-10-12T22:38:37.818Z,99093.47
2022-10-12T22:41:07.606Z,99088.69
2022-10-12T22:43:37.721Z,99088.94
2022-10-12T22:46:06.217Z,99089.25
2022-10-12T22:48:35.226Z,99089.38
2022-10-12T22:51:04.127Z,99086.47
2022-10-12T22:53:32.253Z,99080.56
2022-10-12T22:56:02.085Z,99077.59
2022-10-12T22:58:30.770Z,99081.06
2022-10-12T23:01:04.250Z,99079.00
2022-10-12T23:03:33.175Z,99074.13
2022-10-12T23:06:01.528Z,99075.56
2022-10-12T23:08:30.352Z,99073.75
2022-10-12T23:11:04.960Z,99079.44
2022-10-12T23:13:33.264Z,99073.97
2022-10-12T23:16:07.434Z,99071.81
2022-10-12T23:18:36.655Z,99078.84
2022-10-12T23:21:06.364Z,99078.09
2022-10-12T23:23:34.929Z,99073.41
2022-10-12T23:26:04.799Z,99077.59
2022-10-12T23:28:33.303Z,99072.56
2022-10-12T23:31:03.862Z,99077.25
2022-10-12T23:33:33.607Z,99079.69
2022-10-12T23:36:03.723Z,99082.16
2022-10-12T23:38:33.760Z,99078.97
2022-10-12T23:41:02.322Z,99085.53
2022-10-12T23:43:30.713Z,99074.47
2022-10-12T23:45:58.965Z,99082.16
2022-10-12T23:48:27.624Z,99080.19
2022-10-12T23:50:57.706Z,99081.53
2022-10-12T23:53:26.404Z,99079.16
2022-10-12T23:55:54.770Z,99077.97
2022-10-12T23:58:23.085Z,99076.88
